This is the latest recevied weather packets stored in our database for station/object E24CR-1. If no packets are shown the sender has not sent any weather packets the latest 10 day(s).
| Time | Temp. | Humidity | Pressure | Rain* | Wind** | Luminosity | Snow |
|---|---|---|---|---|---|---|---|
| 1777580924 | 23.89° C | 84% | 951 hPa | - | - | 0 W/m² | - |
| 1777580299 | 24.44° C | 79% | 951 hPa | - | - | 0 W/m² | - |
| 1777579674 | 25° C | 77% | 952 hPa | - | - | 0 W/m² | - |
| 1777579049 | 25.56° C | 74% | 951 hPa | - | - | 0 W/m² | - |
| 1777578425 | 25.56° C | 73% | 952 hPa | - | - | 0 W/m² | - |
| 1777577799 | 27.22° C | 66% | 951 hPa | - | - | 0 W/m² | - |
| 1777577173 | 26.67° C | 69% | 952 hPa | - | - | 0 W/m² | - |
| 1777576548 | 25.56° C | 74% | 952 hPa | - | - | 0 W/m² | - |
| 1777575924 | 26.67° C | 70% | 952 hPa | - | - | 0 W/m² | - |
| 1777575298 | 26.11° C | 72% | 952 hPa | - | - | 0 W/m² | - |
| 1777574674 | 26.11° C | 71% | 952 hPa | - | - | 0 W/m² | - |
| 1777574049 | 26.11° C | 69% | 952 hPa | - | - | 0 W/m² | - |
| 1777573424 | 25.56° C | 71% | 952 hPa | - | - | 0 W/m² | - |
| 1777572799 | 25.56° C | 70% | 952 hPa | - | - | 0 W/m² | - |
| 1777572173 | 26.11° C | 67% | 952 hPa | - | - | 0 W/m² | - |
| 1777571548 | 26.11° C | 70% | 952 hPa | - | - | 0 W/m² | - |
| 1777570923 | 26.67° C | 66% | 952 hPa | - | - | 0 W/m² | - |
| 1777570299 | 26.67° C | 67% | 952 hPa | - | - | 0 W/m² | - |
| 1777569674 | 26.67° C | 68% | 953 hPa | - | - | 0 W/m² | - |
| 1777569048 | 26.67° C | 67% | 953 hPa | - | - | 0 W/m² | - |
| 1777568423 | 27.22° C | 67% | 953 hPa | - | - | 0 W/m² | - |
| 1777567795 | 27.22° C | 67% | 953 hPa | - | - | 0 W/m² | - |
| 1777567170 | 27.78° C | 66% | 953 hPa | - | - | 0 W/m² | - |
| 1777566542 | 27.78° C | 67% | 953 hPa | - | - | 0 W/m² | - |
| 1777565916 | 26.67° C | 68% | 954 hPa | - | - | 0 W/m² | - |
* Rain since midnight (hover to see other rain measurements)
** Current wind speed in m/s (hover to see current wind gust speed)